سياتل، واشنطن, WA

10:47 PM PDT on سبتهبر 03, 2015 (GMT -0700)
Herrera, Inc. | | Change Station
CLOSE
Current Station
Personal Weather Stations
Location: Seattle, WA
Elevation: 121 ft
Nearby Weather Stations

Elev 121 ft 47.62 °N, 122.34 °W | Updated 0 second ago

غائم كلياً
غائم كلياً
55.9 °F
Feels Like 55.9 °F
N
0.0
ريح متغير ريح from WNW
Gusts 10.0 mph

هذا اليوم
High -- | Low -- °F
--% Chance of Precip.
Yesterday
High -- | Low -- °F
Precip. -- في
6:30 AM 7:46 PM
الأحدب الأخير, 63% visible
الضغط 30.01 في
وضوح الرؤية 10.0 أميال
سحابات غائم كلياً 3700 ft
نقطة الندى 49 °F
الرطوبة 78%
Rainfall 0.00 في
عمق الثلج Not available.
الأشعة فوق البنفسجية 0 out of 12
Pollen 1.50 out of 12
جودة الهواء Not available.
Flu Activity Not available.
METAR KBFI 040453Z 34004KT 10SM BKN037 14/08 A3001 RMK AO2 SLP162 T01440083
الضغط 30.01 في
وضوح الرؤية 10.0 أميال
سحابات غائم كلياً 3700 ft
نقطة الندى 49 °F
الرطوبة 78%
Rainfall 0.00 في
عمق الثلج Not available.
الأشعة فوق البنفسجية 0 out of 12
Pollen 1.50 out of 12
جودة الهواء Not available.
Flu Activity Not available.
METAR KBFI 040453Z 34004KT 10SM BKN037 14/08 A3001 RMK AO2 SLP162 T01440083

10-Day Weather Forecast

×

Almanac

علم الفلك

Sep. 03, 2015 Rise Set
Actual Time
Civil Twilight
Nautical Twilight
Astronomical Twilight
قمر
Length Of Visible Light
طول الیوم
Tomorrow will be .
, % of the Moon is Illuminated

Today's Extremes

State Highs State Lows

Community

WunderPhotos

Upload Photos

1,852,129 photos uploaded!

WunderBlogs® & News

Nearby

جودة الهواء

  جودة الهواء AQ Index Pollutant
Not available.

عمق الثلج

Station Depth Elevation

Earthquake Activity

City Distance Mag. Time & Date
Minimum magnitude displayed is 2.5.

Coastal Water Temperatures

مكان درجات الحرارة

Stations

Nearby Weather Stations

Station Location الحرارة رياح باردة نقطة الندى الرطوبة ريح Precip. Elev تحديث Type